sensor_id;sensor_type;location;lat;lon;timestamp;temperature;humidity
57108;DHT22;42987;52.916;6.542;2023-08-01T00:00:05;16.60;99.90
57108;DHT22;42987;52.916;6.542;2023-08-01T00:02:36;16.60;99.90
57108;DHT22;42987;52.916;6.542;2023-08-01T00:05:02;16.60;99.90
57108;DHT22;42987;52.916;6.542;2023-08-01T00:07:28;16.60;99.90
57108;DHT22;42987;52.916;6.542;2023-08-01T00:09:54;16.60;99.90
57108;DHT22;42987;52.916;6.542;2023-08-01T00:12:20;16.50;99.90
57108;DHT22;42987;52.916;6.542;2023-08-01T00:14:45;16.60;99.90
57108;DHT22;42987;52.916;6.542;2023-08-01T00:17:11;16.50;99.90
57108;DHT22;42987;52.916;6.542;2023-08-01T00:19:40;16.50;99.90
57108;DHT22;42987;52.916;6.542;2023-08-01T00:22:06;16.50;99.90
57108;DHT22;42987;52.916;6.542;2023-08-01T00:24:31;16.50;99.90
57108;DHT22;42987;52.916;6.542;2023-08-01T00:26:57;16.40;99.90
57108;DHT22;42987;52.916;6.542;2023-08-01T00:29:23;16.40;99.90
57108;DHT22;42987;52.916;6.542;2023-08-01T00:31:49;16.40;99.90
57108;DHT22;42987;52.916;6.542;2023-08-01T00:34:14;16.40;99.90
57108;DHT22;42987;52.916;6.542;2023-08-01T00:36:40;16.40;99.90
57108;DHT22;42987;52.916;6.542;2023-08-01T00:39:06;16.40;99.90
57108;DHT22;42987;52.916;6.542;2023-08-01T00:41:32;16.40;99.90
57108;DHT22;42987;52.916;6.542;2023-08-01T00:43:57;16.40;99.90
57108;DHT22;42987;52.916;6.542;2023-08-01T00:46:23;16.40;99.90
57108;DHT22;42987;52.916;6.542;2023-08-01T00:48:50;16.30;99.90
57108;DHT22;42987;52.916;6.542;2023-08-01T00:51:16;16.30;99.90
57108;DHT22;42987;52.916;6.542;2023-08-01T00:53:43;16.30;99.90
57108;DHT22;42987;52.916;6.542;2023-08-01T00:56:11;16.30;99.90
57108;DHT22;42987;52.916;6.542;2023-08-01T00:58:36;16.30;99.90
57108;DHT22;42987;52.916;6.542;2023-08-01T01:01:02;16.30;99.90
57108;DHT22;42987;52.916;6.542;2023-08-01T01:03:29;16.30;99.90
57108;DHT22;42987;52.916;6.542;2023-08-01T01:06:19;16.30;99.90
57108;DHT22;42987;52.916;6.542;2023-08-01T01:08:49;16.30;99.90
57108;DHT22;42987;52.916;6.542;2023-08-01T01:11:14;16.30;99.90
57108;DHT22;42987;52.916;6.542;2023-08-01T01:13:40;16.30;99.90
57108;DHT22;42987;52.916;6.542;2023-08-01T01:16:06;16.20;99.90
57108;DHT22;42987;52.916;6.542;2023-08-01T01:18:32;16.20;99.90
57108;DHT22;42987;52.916;6.542;2023-08-01T01:20:57;16.20;99.90
57108;DHT22;42987;52.916;6.542;2023-08-01T01:23:24;16.20;99.90
57108;DHT22;42987;52.916;6.542;2023-08-01T01:25:51;16.30;99.90
57108;DHT22;42987;52.916;6.542;2023-08-01T01:28:18;16.20;99.90
57108;DHT22;42987;52.916;6.542;2023-08-01T01:30:45;16.20;99.90
57108;DHT22;42987;52.916;6.542;2023-08-01T01:33:11;16.30;99.90
57108;DHT22;42987;52.916;6.542;2023-08-01T01:35:41;16.30;99.90
57108;DHT22;42987;52.916;6.542;2023-08-01T01:38:08;16.20;99.90
57108;DHT22;42987;52.916;6.542;2023-08-01T01:40:34;16.30;99.90
57108;DHT22;42987;52.916;6.542;2023-08-01T01:43:00;16.20;99.90
57108;DHT22;42987;52.916;6.542;2023-08-01T01:45:26;16.30;99.90
57108;DHT22;42987;52.916;6.542;2023-08-01T01:47:52;16.30;99.90
57108;DHT22;42987;52.916;6.542;2023-08-01T01:50:18;16.20;99.90
57108;DHT22;42987;52.916;6.542;2023-08-01T01:52:44;16.20;99.90
57108;DHT22;42987;52.916;6.542;2023-08-01T01:55:10;16.20;99.90
57108;DHT22;42987;52.916;6.542;2023-08-01T01:57:36;16.20;99.90
57108;DHT22;42987;52.916;6.542;2023-08-01T02:00:04;16.20;99.90
57108;DHT22;42987;52.916;6.542;2023-08-01T02:02:30;16.20;99.90
57108;DHT22;42987;52.916;6.542;2023-08-01T02:04:56;16.20;99.90
57108;DHT22;42987;52.916;6.542;2023-08-01T02:07:21;16.10;99.90
57108;DHT22;42987;52.916;6.542;2023-08-01T02:09:47;16.10;99.90
57108;DHT22;42987;52.916;6.542;2023-08-01T02:12:13;16.10;99.90
57108;DHT22;42987;52.916;6.542;2023-08-01T02:14:41;16.00;99.90
57108;DHT22;42987;52.916;6.542;2023-08-01T02:17:08;16.00;99.90
57108;DHT22;42987;52.916;6.542;2023-08-01T02:19:34;15.90;99.90
57108;DHT22;42987;52.916;6.542;2023-08-01T02:22:00;15.90;99.90
57108;DHT22;42987;52.916;6.542;2023-08-01T02:24:25;15.80;99.90
57108;DHT22;42987;52.916;6.542;2023-08-01T02:26:51;15.80;99.90
57108;DHT22;42987;52.916;6.542;2023-08-01T02:29:17;15.80;99.90
57108;DHT22;42987;52.916;6.542;2023-08-01T02:31:43;15.70;99.90
57108;DHT22;42987;52.916;6.542;2023-08-01T02:34:08;15.70;99.90
57108;DHT22;42987;52.916;6.542;2023-08-01T02:36:37;15.60;99.90
57108;DHT22;42987;52.916;6.542;2023-08-01T02:39:03;15.60;99.90
57108;DHT22;42987;52.916;6.542;2023-08-01T02:41:28;15.60;99.90
57108;DHT22;42987;52.916;6.542;2023-08-01T02:43:54;15.50;99.90
57108;DHT22;42987;52.916;6.542;2023-08-01T02:46:20;15.50;99.90
57108;DHT22;42987;52.916;6.542;2023-08-01T02:48:46;15.50;99.90
57108;DHT22;42987;52.916;6.542;2023-08-01T02:51:11;15.50;99.90
57108;DHT22;42987;52.916;6.542;2023-08-01T02:53:37;15.50;99.90
57108;DHT22;42987;52.916;6.542;2023-08-01T02:56:06;15.50;99.90
57108;DHT22;42987;52.916;6.542;2023-08-01T02:58:33;15.50;99.90
57108;DHT22;42987;52.916;6.542;2023-08-01T03:00:59;15.50;99.90
57108;DHT22;42987;52.916;6.542;2023-08-01T03:03:24;15.50;99.90
57108;DHT22;42987;52.916;6.542;2023-08-01T03:05:52;15.50;99.90
57108;DHT22;42987;52.916;6.542;2023-08-01T03:08:18;15.50;99.90
57108;DHT22;42987;52.916;6.542;2023-08-01T03:10:44;15.50;99.90
57108;DHT22;42987;52.916;6.542;2023-08-01T03:13:10;15.60;99.90
57108;DHT22;42987;52.916;6.542;2023-08-01T03:15:36;15.60;99.90
57108;DHT22;42987;52.916;6.542;2023-08-01T03:18:02;15.60;99.90
57108;DHT22;42987;52.916;6.542;2023-08-01T03:20:29;15.60;99.90
57108;DHT22;42987;52.916;6.542;2023-08-01T03:22:55;15.60;99.90
57108;DHT22;42987;52.916;6.542;2023-08-01T03:25:21;15.70;99.90
57108;DHT22;42987;52.916;6.542;2023-08-01T03:27:46;15.70;99.90
57108;DHT22;42987;52.916;6.542;2023-08-01T03:30:12;15.70;99.90
57108;DHT22;42987;52.916;6.542;2023-08-01T03:32:40;15.70;99.90
57108;DHT22;42987;52.916;6.542;2023-08-01T03:35:07;15.70;99.90
57108;DHT22;42987;52.916;6.542;2023-08-01T03:37:32;15.70;99.90
57108;DHT22;42987;52.916;6.542;2023-08-01T03:39:58;15.70;99.90
57108;DHT22;42987;52.916;6.542;2023-08-01T03:42:24;15.60;99.90
57108;DHT22;42987;52.916;6.542;2023-08-01T03:44:50;15.60;99.90
57108;DHT22;42987;52.916;6.542;2023-08-01T03:47:15;15.60;99.90
57108;DHT22;42987;52.916;6.542;2023-08-01T03:49:41;15.50;99.90
57108;DHT22;42987;52.916;6.542;2023-08-01T03:52:07;15.50;99.90
57108;DHT22;42987;52.916;6.542;2023-08-01T03:54:33;15.50;99.90
57108;DHT22;42987;52.916;6.542;2023-08-01T03:56:59;15.50;99.90
57108;DHT22;42987;52.916;6.542;2023-08-01T03:59:25;15.50;99.90
57108;DHT22;42987;52.916;6.542;2023-08-01T04:01:51;15.40;99.90
57108;DHT22;42987;52.916;6.542;2023-08-01T04:04:17;15.40;99.90
57108;DHT22;42987;52.916;6.542;2023-08-01T04:06:43;15.40;99.90
57108;DHT22;42987;52.916;6.542;2023-08-01T04:09:11;15.30;99.90
57108;DHT22;42987;52.916;6.542;2023-08-01T04:11:40;15.30;99.90
57108;DHT22;42987;52.916;6.542;2023-08-01T04:14:09;15.30;99.90
57108;DHT22;42987;52.916;6.542;2023-08-01T04:16:35;15.20;99.90
57108;DHT22;42987;52.916;6.542;2023-08-01T04:19:00;15.20;99.90
57108;DHT22;42987;52.916;6.542;2023-08-01T04:21:26;15.10;99.90
57108;DHT22;42987;52.916;6.542;2023-08-01T04:23:52;15.10;99.90
57108;DHT22;42987;52.916;6.542;2023-08-01T04:26:17;15.10;99.90
57108;DHT22;42987;52.916;6.542;2023-08-01T04:28:45;15.00;99.90
57108;DHT22;42987;52.916;6.542;2023-08-01T04:31:11;15.00;99.90
57108;DHT22;42987;52.916;6.542;2023-08-01T04:33:36;15.00;99.90
57108;DHT22;42987;52.916;6.542;2023-08-01T04:36:02;14.90;99.90
57108;DHT22;42987;52.916;6.542;2023-08-01T04:38:28;14.90;99.90
57108;DHT22;42987;52.916;6.542;2023-08-01T04:40:54;14.90;99.90
57108;DHT22;42987;52.916;6.542;2023-08-01T04:43:19;14.90;99.90
57108;DHT22;42987;52.916;6.542;2023-08-01T04:45:45;14.90;99.90
57108;DHT22;42987;52.916;6.542;2023-08-01T04:48:11;14.80;99.90
57108;DHT22;42987;52.916;6.542;2023-08-01T04:50:37;14.80;99.90
57108;DHT22;42987;52.916;6.542;2023-08-01T04:53:06;14.80;99.90
57108;DHT22;42987;52.916;6.542;2023-08-01T04:55:32;14.80;99.90
57108;DHT22;42987;52.916;6.542;2023-08-01T04:58:00;14.80;99.90
57108;DHT22;42987;52.916;6.542;2023-08-01T05:00:26;14.80;99.90
57108;DHT22;42987;52.916;6.542;2023-08-01T05:02:52;14.70;99.90
57108;DHT22;42987;52.916;6.542;2023-08-01T05:05:18;14.80;99.90
57108;DHT22;42987;52.916;6.542;2023-08-01T05:07:43;14.80;99.90
57108;DHT22;42987;52.916;6.542;2023-08-01T05:10:10;14.80;99.90
57108;DHT22;42987;52.916;6.542;2023-08-01T05:12:35;14.80;99.90
57108;DHT22;42987;52.916;6.542;2023-08-01T05:15:02;14.80;99.90
57108;DHT22;42987;52.916;6.542;2023-08-01T05:17:29;14.90;99.90
57108;DHT22;42987;52.916;6.542;2023-08-01T05:19:54;14.90;99.90
57108;DHT22;42987;52.916;6.542;2023-08-01T05:22:21;15.00;99.90
57108;DHT22;42987;52.916;6.542;2023-08-01T05:24:46;15.00;99.90
57108;DHT22;42987;52.916;6.542;2023-08-01T05:27:12;15.10;99.90
57108;DHT22;42987;52.916;6.542;2023-08-01T05:29:38;15.20;99.90
57108;DHT22;42987;52.916;6.542;2023-08-01T05:32:04;15.20;99.90
57108;DHT22;42987;52.916;6.542;2023-08-01T05:34:29;15.30;99.90
57108;DHT22;42987;52.916;6.542;2023-08-01T05:36:55;15.30;99.90
57108;DHT22;42987;52.916;6.542;2023-08-01T05:39:21;15.30;99.90
57108;DHT22;42987;52.916;6.542;2023-08-01T05:41:47;15.30;99.90
57108;DHT22;42987;52.916;6.542;2023-08-01T05:44:12;15.30;99.90
57108;DHT22;42987;52.916;6.542;2023-08-01T05:46:38;15.40;99.90
57108;DHT22;42987;52.916;6.542;2023-08-01T05:49:04;15.30;99.90
57108;DHT22;42987;52.916;6.542;2023-08-01T05:51:30;15.30;99.90
57108;DHT22;42987;52.916;6.542;2023-08-01T05:53:55;15.30;99.90
57108;DHT22;42987;52.916;6.542;2023-08-01T05:56:21;15.30;99.90
57108;DHT22;42987;52.916;6.542;2023-08-01T05:58:47;15.40;99.90
57108;DHT22;42987;52.916;6.542;2023-08-01T06:01:13;15.40;99.90
57108;DHT22;42987;52.916;6.542;2023-08-01T06:03:39;15.50;99.90
57108;DHT22;42987;52.916;6.542;2023-08-01T06:06:05;15.50;99.90
57108;DHT22;42987;52.916;6.542;2023-08-01T06:08:31;15.50;99.90
57108;DHT22;42987;52.916;6.542;2023-08-01T06:10:56;15.70;99.90
57108;DHT22;42987;52.916;6.542;2023-08-01T06:13:22;15.70;99.90
57108;DHT22;42987;52.916;6.542;2023-08-01T06:15:48;15.70;99.90
57108;DHT22;42987;52.916;6.542;2023-08-01T06:18:14;15.80;99.90
57108;DHT22;42987;52.916;6.542;2023-08-01T06:20:40;15.80;99.90
57108;DHT22;42987;52.916;6.542;2023-08-01T06:23:06;15.80;99.90
57108;DHT22;42987;52.916;6.542;2023-08-01T06:25:31;15.80;99.90
57108;DHT22;42987;52.916;6.542;2023-08-01T06:27:57;15.80;99.90
57108;DHT22;42987;52.916;6.542;2023-08-01T06:30:23;15.80;99.90
57108;DHT22;42987;52.916;6.542;2023-08-01T06:32:49;15.80;99.90
57108;DHT22;42987;52.916;6.542;2023-08-01T06:35:14;15.80;99.90
57108;DHT22;42987;52.916;6.542;2023-08-01T06:37:40;15.80;99.90
57108;DHT22;42987;52.916;6.542;2023-08-01T06:40:06;15.80;99.90
57108;DHT22;42987;52.916;6.542;2023-08-01T06:42:33;15.80;99.90
57108;DHT22;42987;52.916;6.542;2023-08-01T06:44:59;15.80;99.90
57108;DHT22;42987;52.916;6.542;2023-08-01T06:47:24;15.80;99.90
57108;DHT22;42987;52.916;6.542;2023-08-01T06:49:50;15.80;99.90
57108;DHT22;42987;52.916;6.542;2023-08-01T06:52:16;15.80;99.90
57108;DHT22;42987;52.916;6.542;2023-08-01T06:54:42;15.80;99.90
57108;DHT22;42987;52.916;6.542;2023-08-01T06:57:08;15.80;99.90
57108;DHT22;42987;52.916;6.542;2023-08-01T06:59:33;15.80;99.90
57108;DHT22;42987;52.916;6.542;2023-08-01T07:02:00;15.80;99.90
57108;DHT22;42987;52.916;6.542;2023-08-01T07:04:25;15.80;99.90
57108;DHT22;42987;52.916;6.542;2023-08-01T07:06:51;15.90;99.90
57108;DHT22;42987;52.916;6.542;2023-08-01T07:09:17;16.00;99.90
57108;DHT22;42987;52.916;6.542;2023-08-01T07:11:43;16.10;99.90
57108;DHT22;42987;52.916;6.542;2023-08-01T07:14:08;16.20;99.90
57108;DHT22;42987;52.916;6.542;2023-08-01T07:16:34;16.20;99.90
57108;DHT22;42987;52.916;6.542;2023-08-01T07:19:00;16.30;99.90
57108;DHT22;42987;52.916;6.542;2023-08-01T07:21:26;16.30;99.90
57108;DHT22;42987;52.916;6.542;2023-08-01T07:23:55;16.40;99.90
57108;DHT22;42987;52.916;6.542;2023-08-01T07:26:23;16.50;99.90
57108;DHT22;42987;52.916;6.542;2023-08-01T07:28:49;16.50;99.90
57108;DHT22;42987;52.916;6.542;2023-08-01T07:31:14;16.60;99.90
57108;DHT22;42987;52.916;6.542;2023-08-01T07:33:40;16.70;99.90
57108;DHT22;42987;52.916;6.542;2023-08-01T07:36:06;16.70;99.90
57108;DHT22;42987;52.916;6.542;2023-08-01T07:38:32;16.70;99.90
57108;DHT22;42987;52.916;6.542;2023-08-01T07:41:01;16.60;99.90
57108;DHT22;42987;52.916;6.542;2023-08-01T07:43:27;16.60;99.90
57108;DHT22;42987;52.916;6.542;2023-08-01T07:45:57;16.50;99.90
57108;DHT22;42987;52.916;6.542;2023-08-01T07:48:23;16.50;99.90
57108;DHT22;42987;52.916;6.542;2023-08-01T07:50:49;16.40;99.90
57108;DHT22;42987;52.916;6.542;2023-08-01T07:53:15;16.40;99.90
57108;DHT22;42987;52.916;6.542;2023-08-01T07:55:41;16.30;99.90
57108;DHT22;42987;52.916;6.542;2023-08-01T07:58:07;16.30;99.90
57108;DHT22;42987;52.916;6.542;2023-08-01T08:00:35;16.20;99.90
57108;DHT22;42987;52.916;6.542;2023-08-01T08:03:00;16.20;99.90
57108;DHT22;42987;52.916;6.542;2023-08-01T08:05:26;16.20;99.90
57108;DHT22;42987;52.916;6.542;2023-08-01T08:07:52;16.20;99.90
57108;DHT22;42987;52.916;6.542;2023-08-01T08:10:17;16.20;99.90
57108;DHT22;42987;52.916;6.542;2023-08-01T08:12:43;16.40;99.90
57108;DHT22;42987;52.916;6.542;2023-08-01T08:15:09;16.40;99.90
57108;DHT22;42987;52.916;6.542;2023-08-01T08:17:35;16.40;99.90
57108;DHT22;42987;52.916;6.542;2023-08-01T08:20:01;16.40;99.90
57108;DHT22;42987;52.916;6.542;2023-08-01T08:22:26;16.30;99.90
57108;DHT22;42987;52.916;6.542;2023-08-01T08:24:53;16.30;99.90
57108;DHT22;42987;52.916;6.542;2023-08-01T08:27:19;16.20;99.90
57108;DHT22;42987;52.916;6.542;2023-08-01T08:29:45;16.20;99.90
57108;DHT22;42987;52.916;6.542;2023-08-01T08:32:11;16.10;99.90
57108;DHT22;42987;52.916;6.542;2023-08-01T08:34:36;16.10;99.90
57108;DHT22;42987;52.916;6.542;2023-08-01T08:37:02;16.10;99.90
57108;DHT22;42987;52.916;6.542;2023-08-01T08:39:28;16.10;99.90
57108;DHT22;42987;52.916;6.542;2023-08-01T08:41:54;16.10;99.90
57108;DHT22;42987;52.916;6.542;2023-08-01T08:44:20;16.10;99.90
57108;DHT22;42987;52.916;6.542;2023-08-01T08:46:52;16.10;99.90
57108;DHT22;42987;52.916;6.542;2023-08-01T08:49:24;16.10;99.90
57108;DHT22;42987;52.916;6.542;2023-08-01T08:51:52;16.10;99.90
57108;DHT22;42987;52.916;6.542;2023-08-01T08:54:20;16.10;99.90
57108;DHT22;42987;52.916;6.542;2023-08-01T08:56:46;16.10;99.90
57108;DHT22;42987;52.916;6.542;2023-08-01T08:59:14;16.10;99.90
57108;DHT22;42987;52.916;6.542;2023-08-01T09:01:44;16.10;99.90
57108;DHT22;42987;52.916;6.542;2023-08-01T09:04:10;16.10;99.90
57108;DHT22;42987;52.916;6.542;2023-08-01T09:06:48;16.10;99.90
57108;DHT22;42987;52.916;6.542;2023-08-01T09:09:14;16.20;99.90
57108;DHT22;42987;52.916;6.542;2023-08-01T09:11:51;16.20;99.90
57108;DHT22;42987;52.916;6.542;2023-08-01T09:14:18;16.20;99.90
57108;DHT22;42987;52.916;6.542;2023-08-01T09:16:45;16.20;99.90
57108;DHT22;42987;52.916;6.542;2023-08-01T09:19:17;16.30;99.90
57108;DHT22;42987;52.916;6.542;2023-08-01T09:21:44;16.30;99.90
57108;DHT22;42987;52.916;6.542;2023-08-01T09:26:36;16.30;99.90
57108;DHT22;42987;52.916;6.542;2023-08-01T09:29:01;16.30;99.90
57108;DHT22;42987;52.916;6.542;2023-08-01T09:31:32;16.30;99.90
57108;DHT22;42987;52.916;6.542;2023-08-01T09:33:59;16.30;99.90
57108;DHT22;42987;52.916;6.542;2023-08-01T09:36:25;16.20;99.90
57108;DHT22;42987;52.916;6.542;2023-08-01T09:38:51;16.20;99.90
57108;DHT22;42987;52.916;6.542;2023-08-01T09:41:23;16.20;99.90
57108;DHT22;42987;52.916;6.542;2023-08-01T09:43:49;16.40;99.90
57108;DHT22;42987;52.916;6.542;2023-08-01T09:46:15;16.50;99.90
57108;DHT22;42987;52.916;6.542;2023-08-01T09:48:41;16.70;99.90
57108;DHT22;42987;52.916;6.542;2023-08-01T09:51:12;16.70;99.90
57108;DHT22;42987;52.916;6.542;2023-08-01T09:53:52;16.80;99.90
57108;DHT22;42987;52.916;6.542;2023-08-01T09:56:28;16.90;99.90
57108;DHT22;42987;52.916;6.542;2023-08-01T09:58:55;16.90;99.90
57108;DHT22;42987;52.916;6.542;2023-08-01T10:01:23;17.00;99.90
57108;DHT22;42987;52.916;6.542;2023-08-01T10:03:51;17.10;99.90
57108;DHT22;42987;52.916;6.542;2023-08-01T10:06:19;17.20;99.90
57108;DHT22;42987;52.916;6.542;2023-08-01T10:08:46;17.20;99.90
57108;DHT22;42987;52.916;6.542;2023-08-01T10:11:14;17.20;99.90
57108;DHT22;42987;52.916;6.542;2023-08-01T10:13:42;17.20;99.90
57108;DHT22;42987;52.916;6.542;2023-08-01T10:16:09;17.10;99.90
57108;DHT22;42987;52.916;6.542;2023-08-01T10:18:36;17.10;99.90
57108;DHT22;42987;52.916;6.542;2023-08-01T10:21:06;17.10;99.90
57108;DHT22;42987;52.916;6.542;2023-08-01T10:23:33;17.00;99.90
57108;DHT22;42987;52.916;6.542;2023-08-01T10:26:00;17.00;99.90
57108;DHT22;42987;52.916;6.542;2023-08-01T10:28:41;17.00;99.90
57108;DHT22;42987;52.916;6.542;2023-08-01T10:31:14;16.90;99.90
57108;DHT22;42987;52.916;6.542;2023-08-01T10:33:42;17.00;99.90
57108;DHT22;42987;52.916;6.542;2023-08-01T10:36:21;17.00;99.90
57108;DHT22;42987;52.916;6.542;2023-08-01T10:38:51;17.00;99.90
57108;DHT22;42987;52.916;6.542;2023-08-01T10:41:26;17.00;99.90
57108;DHT22;42987;52.916;6.542;2023-08-01T10:44:13;16.90;99.90
57108;DHT22;42987;52.916;6.542;2023-08-01T10:49:16;16.90;99.90
57108;DHT22;42987;52.916;6.542;2023-08-01T10:51:43;16.90;99.90
57108;DHT22;42987;52.916;6.542;2023-08-01T10:54:22;17.00;99.90
57108;DHT22;42987;52.916;6.542;2023-08-01T10:56:50;17.10;99.90
57108;DHT22;42987;52.916;6.542;2023-08-01T10:59:16;17.40;99.90
57108;DHT22;42987;52.916;6.542;2023-08-01T11:01:50;17.80;99.90
57108;DHT22;42987;52.916;6.542;2023-08-01T11:04:21;18.20;99.90
57108;DHT22;42987;52.916;6.542;2023-08-01T11:06:52;18.50;99.90
57108;DHT22;42987;52.916;6.542;2023-08-01T11:09:20;18.70;99.90
57108;DHT22;42987;52.916;6.542;2023-08-01T11:11:48;18.90;99.90
57108;DHT22;42987;52.916;6.542;2023-08-01T11:14:15;19.10;99.90
57108;DHT22;42987;52.916;6.542;2023-08-01T11:16:42;19.30;99.90
57108;DHT22;42987;52.916;6.542;2023-08-01T11:19:29;19.50;99.90
57108;DHT22;42987;52.916;6.542;2023-08-01T11:21:56;19.40;99.90
57108;DHT22;42987;52.916;6.542;2023-08-01T11:24:24;19.40;99.90
57108;DHT22;42987;52.916;6.542;2023-08-01T11:26:51;19.60;99.90
57108;DHT22;42987;52.916;6.542;2023-08-01T11:29:18;19.70;99.90
57108;DHT22;42987;52.916;6.542;2023-08-01T11:31:58;19.60;99.90
57108;DHT22;42987;52.916;6.542;2023-08-01T11:34:25;19.60;99.90
57108;DHT22;42987;52.916;6.542;2023-08-01T11:36:51;19.50;99.90
57108;DHT22;42987;52.916;6.542;2023-08-01T11:39:18;19.30;99.90
57108;DHT22;42987;52.916;6.542;2023-08-01T11:41:44;19.10;99.90
57108;DHT22;42987;52.916;6.542;2023-08-01T11:44:10;18.90;99.90
57108;DHT22;42987;52.916;6.542;2023-08-01T11:46:38;18.70;99.90
57108;DHT22;42987;52.916;6.542;2023-08-01T11:49:06;18.70;99.90
57108;DHT22;42987;52.916;6.542;2023-08-01T11:51:42;18.90;99.90
57108;DHT22;42987;52.916;6.542;2023-08-01T11:54:10;19.10;99.90
57108;DHT22;42987;52.916;6.542;2023-08-01T11:56:38;19.10;99.90
57108;DHT22;42987;52.916;6.542;2023-08-01T11:59:13;19.00;99.90
57108;DHT22;42987;52.916;6.542;2023-08-01T12:01:46;18.80;99.90
57108;DHT22;42987;52.916;6.542;2023-08-01T12:04:23;18.60;99.90
57108;DHT22;42987;52.916;6.542;2023-08-01T12:06:49;18.30;99.90
57108;DHT22;42987;52.916;6.542;2023-08-01T12:09:14;18.20;99.90
57108;DHT22;42987;52.916;6.542;2023-08-01T12:11:41;18.20;99.90
57108;DHT22;42987;52.916;6.542;2023-08-01T12:14:09;18.30;99.90
57108;DHT22;42987;52.916;6.542;2023-08-01T12:16:36;18.40;99.90
57108;DHT22;42987;52.916;6.542;2023-08-01T12:19:02;18.50;99.90
57108;DHT22;42987;52.916;6.542;2023-08-01T12:21:29;18.80;99.90
57108;DHT22;42987;52.916;6.542;2023-08-01T12:23:55;19.00;99.90
57108;DHT22;42987;52.916;6.542;2023-08-01T12:26:22;19.10;99.90
57108;DHT22;42987;52.916;6.542;2023-08-01T12:28:48;19.30;99.90
57108;DHT22;42987;52.916;6.542;2023-08-01T12:31:21;19.40;99.90
57108;DHT22;42987;52.916;6.542;2023-08-01T12:33:50;19.50;99.90
57108;DHT22;42987;52.916;6.542;2023-08-01T12:36:17;19.50;99.90
57108;DHT22;42987;52.916;6.542;2023-08-01T12:38:43;19.40;99.90
57108;DHT22;42987;52.916;6.542;2023-08-01T12:41:09;19.20;99.90
57108;DHT22;42987;52.916;6.542;2023-08-01T12:43:35;19.10;99.90
57108;DHT22;42987;52.916;6.542;2023-08-01T12:46:01;19.00;99.90
57108;DHT22;42987;52.916;6.542;2023-08-01T12:48:27;18.90;99.90
57108;DHT22;42987;52.916;6.542;2023-08-01T12:50:54;18.80;99.90
57108;DHT22;42987;52.916;6.542;2023-08-01T12:53:20;18.80;99.90
57108;DHT22;42987;52.916;6.542;2023-08-01T12:55:48;18.70;99.90
57108;DHT22;42987;52.916;6.542;2023-08-01T12:58:14;18.70;99.90
57108;DHT22;42987;52.916;6.542;2023-08-01T13:00:41;18.70;99.90
57108;DHT22;42987;52.916;6.542;2023-08-01T13:03:11;18.70;99.90
57108;DHT22;42987;52.916;6.542;2023-08-01T13:05:38;18.70;99.90
57108;DHT22;42987;52.916;6.542;2023-08-01T13:08:05;18.60;99.90
57108;DHT22;42987;52.916;6.542;2023-08-01T13:10:35;18.60;99.90
57108;DHT22;42987;52.916;6.542;2023-08-01T13:13:01;18.70;99.90
57108;DHT22;42987;52.916;6.542;2023-08-01T13:15:29;18.70;99.90
57108;DHT22;42987;52.916;6.542;2023-08-01T13:17:55;18.80;99.90
57108;DHT22;42987;52.916;6.542;2023-08-01T13:20:21;18.90;99.90
57108;DHT22;42987;52.916;6.542;2023-08-01T13:22:51;19.10;99.90
57108;DHT22;42987;52.916;6.542;2023-08-01T13:25:18;19.20;99.90
57108;DHT22;42987;52.916;6.542;2023-08-01T13:27:44;19.40;99.90
57108;DHT22;42987;52.916;6.542;2023-08-01T13:30:10;19.60;99.90
57108;DHT22;42987;52.916;6.542;2023-08-01T13:32:40;19.60;99.90
57108;DHT22;42987;52.916;6.542;2023-08-01T13:35:05;19.70;99.90
57108;DHT22;42987;52.916;6.542;2023-08-01T13:37:31;19.70;99.90
57108;DHT22;42987;52.916;6.542;2023-08-01T13:39:57;19.60;99.90
57108;DHT22;42987;52.916;6.542;2023-08-01T13:42:23;19.60;99.90
57108;DHT22;42987;52.916;6.542;2023-08-01T13:44:49;19.60;99.90
57108;DHT22;42987;52.916;6.542;2023-08-01T13:47:15;19.60;99.90
57108;DHT22;42987;52.916;6.542;2023-08-01T13:49:41;19.50;99.90
57108;DHT22;42987;52.916;6.542;2023-08-01T13:52:06;19.40;99.90
57108;DHT22;42987;52.916;6.542;2023-08-01T13:54:35;19.20;99.90
57108;DHT22;42987;52.916;6.542;2023-08-01T13:57:01;19.10;99.90
57108;DHT22;42987;52.916;6.542;2023-08-01T13:59:26;18.90;99.90
57108;DHT22;42987;52.916;6.542;2023-08-01T14:01:53;18.80;99.90
57108;DHT22;42987;52.916;6.542;2023-08-01T14:04:19;18.70;99.90
57108;DHT22;42987;52.916;6.542;2023-08-01T14:06:45;18.70;99.90
57108;DHT22;42987;52.916;6.542;2023-08-01T14:09:11;18.70;99.90
57108;DHT22;42987;52.916;6.542;2023-08-01T14:11:40;18.70;99.90
57108;DHT22;42987;52.916;6.542;2023-08-01T14:14:05;18.60;99.90
57108;DHT22;42987;52.916;6.542;2023-08-01T14:16:31;18.60;99.90
57108;DHT22;42987;52.916;6.542;2023-08-01T14:18:58;18.50;99.90
57108;DHT22;42987;52.916;6.542;2023-08-01T14:21:25;18.40;99.90
57108;DHT22;42987;52.916;6.542;2023-08-01T14:23:50;18.40;99.90
57108;DHT22;42987;52.916;6.542;2023-08-01T14:26:16;18.40;99.90
57108;DHT22;42987;52.916;6.542;2023-08-01T14:28:42;18.40;99.90
57108;DHT22;42987;52.916;6.542;2023-08-01T14:31:08;18.30;99.90
57108;DHT22;42987;52.916;6.542;2023-08-01T14:33:34;18.30;99.90
57108;DHT22;42987;52.916;6.542;2023-08-01T14:36:00;18.20;99.90
57108;DHT22;42987;52.916;6.542;2023-08-01T14:38:26;18.20;99.90
57108;DHT22;42987;52.916;6.542;2023-08-01T14:40:57;18.10;99.90
57108;DHT22;42987;52.916;6.542;2023-08-01T14:43:23;18.00;99.90
57108;DHT22;42987;52.916;6.542;2023-08-01T14:45:49;18.00;99.90
57108;DHT22;42987;52.916;6.542;2023-08-01T14:48:14;18.00;99.90
57108;DHT22;42987;52.916;6.542;2023-08-01T14:50:40;18.00;99.90
57108;DHT22;42987;52.916;6.542;2023-08-01T14:53:09;17.90;99.90
57108;DHT22;42987;52.916;6.542;2023-08-01T14:55:35;17.90;99.90
57108;DHT22;42987;52.916;6.542;2023-08-01T14:58:00;18.00;99.90
57108;DHT22;42987;52.916;6.542;2023-08-01T15:00:26;18.20;99.90
57108;DHT22;42987;52.916;6.542;2023-08-01T15:02:52;18.30;99.90
57108;DHT22;42987;52.916;6.542;2023-08-01T15:05:18;18.50;99.90
57108;DHT22;42987;52.916;6.542;2023-08-01T15:07:44;18.60;99.90
57108;DHT22;42987;52.916;6.542;2023-08-01T15:10:10;18.60;99.90
57108;DHT22;42987;52.916;6.542;2023-08-01T15:12:36;18.70;99.90
57108;DHT22;42987;52.916;6.542;2023-08-01T15:15:06;18.60;99.90
57108;DHT22;42987;52.916;6.542;2023-08-01T15:17:32;18.60;99.90
57108;DHT22;42987;52.916;6.542;2023-08-01T15:19:58;18.40;99.90
57108;DHT22;42987;52.916;6.542;2023-08-01T15:22:23;18.30;99.90
57108;DHT22;42987;52.916;6.542;2023-08-01T15:24:49;18.30;99.90
57108;DHT22;42987;52.916;6.542;2023-08-01T15:27:15;18.20;99.90
57108;DHT22;42987;52.916;6.542;2023-08-01T15:29:45;18.20;99.90
57108;DHT22;42987;52.916;6.542;2023-08-01T15:32:12;18.10;99.90